Home   Weather   Italy   Firenze   Past weeks
Flag for Italy

Past Weather in Firenze, Italy — Yesterday and Last 2 Weeks

Currently: 50 °F. Passing clouds. (Weather station: Florence / Peretola, Italy). See more current weather

Past Weather in Firenze — Graph

°F

Firenze Temperature Yesterday

Maximum temperature yesterday: 57 °F (at 3:20 pm)
Minimum temperature yesterday: 41 °F (at 6:50 am)
Average temperature yesterday: 50 °F

High & Low Weather Summary for the Past Weeks

 TemperatureHumidityPressure
High75 °F (Apr 1, 3:50 pm)100% (Apr 10, 7:20 pm)30.36 "Hg (Apr 10, 7:20 pm)
Low28 °F (Apr 8, 5:20 am)18% (Apr 7, 5:20 pm)29.53 "Hg (Apr 6, 11:20 am)
Average53 °F59%30.04 "Hg
* Reported Apr 1 9:50 am — Apr 16 8:50 am, Firenze. Weather by CustomWeather, © 2021

Note: Actual official high and low records may vary slightly from our data, if they occured in-between our weather recording intervals... More about our weather records

Firenze Weather History for the Previous 24 Hours

Scroll right to see more
 ConditionsComfort  
Time TempWeatherWind HumidityBarometerVisibility
8:50 am
Fri, Apr 16
46 °FPassing clouds.6 mph66%30.07 "HgN/A
8:20 am45 °FSunny.5 mph71%30.07 "Hg10 mi
7:50 am43 °FSunny.5 mph71%30.07 "Hg10 mi
7:20 am41 °FSunny.6 mph76%30.07 "Hg10 mi
6:50 am41 °FSunny.6 mph76%30.07 "Hg10 mi
6:20 am41 °FPassing clouds.3 mph76%30.07 "HgN/A
5:50 am41 °FClear.6 mph76%30.07 "Hg10 mi
5:20 am41 °FPassing clouds.6 mph81%30.07 "HgN/A
4:50 am41 °FClear.3 mph81%30.07 "Hg10 mi
4:20 am41 °FClear.5 mph81%30.07 "Hg10 mi
3:50 am43 °FPassing clouds.3 mph81%30.07 "HgN/A
3:20 am41 °FClear.5 mph87%30.07 "Hg10 mi
2:50 am39 °FClear.2 mph87%30.07 "Hg10 mi
2:20 am41 °FPassing clouds.1 mph87%30.09 "HgN/A
1:50 am43 °FPassing clouds.1 mph81%30.09 "HgN/A
1:20 am45 °FClear.2 mph76%30.09 "Hg10 mi
12:50 am45 °FClear.5 mph76%30.09 "Hg10 mi
12:20 am46 °FPassing clouds.3 mph71%30.09 "HgN/A
11:50 pm
Thu, Apr 15
46 °FPassing clouds.3 mph71%30.09 "HgN/A
11:20 pm48 °FClear.6 mph66%30.09 "Hg10 mi
10:50 pm48 °FPassing clouds.3 mph66%30.09 "HgN/A
10:20 pm50 °FClear.6 mph62%30.09 "Hg10 mi
9:50 pm48 °FClear.6 mph66%30.09 "Hg10 mi
9:20 pm48 °FPassing clouds.5 mph66%30.09 "HgN/A
8:50 pm50 °FPassing clouds.8 mph62%30.07 "HgN/A
8:20 pm52 °FClear.12 mph54%30.07 "Hg10 mi
7:50 pm54 °FSunny.8 mph54%30.07 "Hg10 mi
7:20 pm54 °FSunny.8 mph54%30.07 "Hg10 mi
6:50 pm54 °FPassing clouds.9 mph51%30.07 "HgN/A
6:20 pm57 °FPassing clouds.9 mph41%30.07 "HgN/A
5:50 pm57 °FPassing clouds.7 mph41%30.07 "HgN/A
5:20 pm57 °FPassing clouds.5 mph44%30.07 "HgN/A
4:50 pm57 °FScattered clouds.7 mph44%30.09 "HgN/A
4:20 pm55 °FScattered clouds.6 mph41%30.09 "HgN/A
3:50 pm57 °FPartly sunny.6 mph41%30.09 "HgN/A
3:20 pm57 °FPartly sunny.8 mph41%30.09 "HgN/A
2:50 pm55 °FPartly sunny.9 mph44%30.12 "HgN/A
2:20 pm55 °FPartly sunny.8 mph44%30.12 "HgN/A
1:50 pm55 °FPartly sunny.10 mph44%30.12 "HgN/A
1:20 pm55 °FScattered clouds.7 mph41%30.12 "HgN/A
12:50 pm54 °FPartly sunny.6 mph41%30.12 "HgN/A
12:20 pm54 °FPartly sunny.3 mph38%30.15 "HgN/A
11:50 am54 °FPartly sunny.5 mph38%30.15 "HgN/A
11:20 am54 °FPartly sunny.3 mph41%30.15 "HgN/A
10:50 am52 °FScattered clouds.2 mph44%30.15 "HgN/A
10:20 am52 °FScattered clouds.1 mph50%30.15 "HgN/A
Weather by CustomWeather, © 2021

See weather overview